Time;durP1;ratioP1;P1;durP2;ratioP2;P2;SDS_P1;SDS_P2;PMS_P1;PMS_P2;Temp;Humidity;BMP_temperature;BMP_pressure;BME280_temperature;BME280_humidity;BME280_pressure;Samples;Min_cycle;Max_cycle;Signal;HPM_P1;HPM_P2
2024/02/27 00:02:15;;;;;;;52.95;29.60;;;;;;;;;;5078200;28;20058;-83
2024/02/27 00:04:45;;;;;;;49.83;27.50;;;;;;;;;;5077968;28;20022;-82
2024/02/27 00:07:12;;;;;;;56.13;28.95;;;;;;;;;;5010831;28;20062;-83
2024/02/27 00:09:44;;;;;;;58.90;35.17;;;;;;;;;;5077872;28;20082;-83
2024/02/27 00:12:10;;;;;;;57.95;31.50;;;;;;;;;;5010816;28;20022;-83
2024/02/27 00:14:37;;;;;;;59.38;30.30;;;;;;;;;;5009884;28;20527;-76
2024/02/27 00:17:03;;;;;;;53.45;29.95;;;;;;;;;;5009520;28;20025;-76
2024/02/27 00:19:30;;;;;;;55.00;29.00;;;;;;;;;;5078185;28;20234;-81
2024/02/27 00:21:56;;;;;;;51.92;28.02;;;;;;;;;;5078102;28;20066;-75
2024/02/27 00:24:22;;;;;;;53.70;30.02;;;;;;;;;;5077067;28;20436;-81
2024/02/27 00:26:48;;;;;;;54.05;31.38;;;;;;;;;;5010456;28;20548;-81
2024/02/27 00:29:14;;;;;;;51.78;30.40;;;;;;;;;;5077817;28;20376;-81
2024/02/27 00:31:40;;;;;;;47.58;27.17;;;;;;;;;;5001275;28;20413;-76
2024/02/27 00:34:07;;;;;;;42.83;25.42;;;;;;;;;;5007064;28;20034;-76
2024/02/27 00:36:33;;;;;;;47.13;27.00;;;;;;;;;;5077933;28;20534;-80
2024/02/27 00:38:59;;;;;;;48.28;25.67;;;;;;;;;;5077645;28;20107;-76
2024/02/27 00:41:25;;;;;;;48.25;28.48;;;;;;;;;;5010042;28;20094;-81
2024/02/27 00:43:51;;;;;;;56.42;32.30;;;;;;;;;;5077659;28;20034;-76
2024/02/27 00:46:17;;;;;;;61.78;33.58;;;;;;;;;;5010143;28;20097;-81
2024/02/27 00:48:43;;;;;;;63.47;33.42;;;;;;;;;;5077243;28;20061;-76
2024/02/27 00:51:09;;;;;;;55.63;30.17;;;;;;;;;;5077368;28;20483;-76
2024/02/27 00:53:35;;;;;;;53.13;28.73;;;;;;;;;;5071351;28;20034;-76
2024/02/27 00:56:01;;;;;;;52.35;30.08;;;;;;;;;;5077620;28;20030;-82
2024/02/27 00:58:27;;;;;;;50.08;28.08;;;;;;;;;;5077060;28;20729;-82
2024/02/27 01:00:53;;;;;;;49.97;28.77;;;;;;;;;;5000867;28;20026;-76
2024/02/27 01:03:19;;;;;;;47.90;29.17;;;;;;;;;;4992784;28;20027;-82
2024/02/27 01:05:45;;;;;;;51.95;28.65;;;;;;;;;;5077424;28;20037;-76
2024/02/27 01:08:11;;;;;;;49.63;27.05;;;;;;;;;;5077125;28;20030;-82
2024/02/27 01:10:37;;;;;;;59.33;32.88;;;;;;;;;;5009558;28;20062;-82
2024/02/27 01:13:04;;;;;;;48.08;28.20;;;;;;;;;;5077176;28;20163;-76
2024/02/27 01:15:30;;;;;;;49.97;28.77;;;;;;;;;;5077486;28;20376;-82
2024/02/27 01:17:56;;;;;;;47.85;28.45;;;;;;;;;;5077682;28;20118;-81
2024/02/27 01:20:22;;;;;;;51.28;27.92;;;;;;;;;;5077487;28;20030;-77
2024/02/27 01:22:48;;;;;;;51.42;28.58;;;;;;;;;;5009060;28;20025;-83
2024/02/27 01:25:16;;;;;;;48.65;27.15;;;;;;;;;;5077425;28;20029;-76
2024/02/27 01:27:42;;;;;;;44.13;25.48;;;;;;;;;;5010705;28;20011;-82
2024/02/27 01:30:09;;;;;;;48.15;27.00;;;;;;;;;;5003419;28;20026;-76
2024/02/27 01:32:35;;;;;;;44.47;25.33;;;;;;;;;;5010083;28;20014;-76
2024/02/27 01:35:01;;;;;;;42.17;24.90;;;;;;;;;;5013096;28;20038;-82
2024/02/27 01:37:27;;;;;;;57.28;30.02;;;;;;;;;;5012907;28;20022;-82
2024/02/27 01:39:54;;;;;;;52.40;30.23;;;;;;;;;;5080970;28;20049;-81
2024/02/27 01:42:20;;;;;;;48.80;26.63;;;;;;;;;;5012534;28;20032;-76
2024/02/27 01:44:50;;;;;;;51.97;27.25;;;;;;;;;;5080917;28;20083;-75
2024/02/27 01:47:20;;;;;;;54.08;29.92;;;;;;;;;;5080616;28;20522;-76
2024/02/27 01:49:47;;;;;;;48.88;25.83;;;;;;;;;;5012690;28;20030;-76
2024/02/27 01:52:14;;;;;;;46.05;25.70;;;;;;;;;;4998662;28;20031;-75
2024/02/27 01:54:41;;;;;;;52.20;27.83;;;;;;;;;;5004438;28;20087;-81
2024/02/27 01:57:07;;;;;;;46.03;26.73;;;;;;;;;;5080362;28;20438;-76
2024/02/27 01:59:34;;;;;;;45.90;26.35;;;;;;;;;;5012165;28;20391;-76
2024/02/27 02:02:01;;;;;;;50.08;24.88;;;;;;;;;;5080134;28;20402;-82
2024/02/27 02:04:27;;;;;;;43.67;26.23;;;;;;;;;;5012701;28;20030;-82
2024/02/27 02:06:53;;;;;;;40.70;25.17;;;;;;;;;;5011640;28;20018;-82
2024/02/27 02:09:19;;;;;;;47.97;26.83;;;;;;;;;;5080664;28;20034;-76
2024/02/27 02:11:46;;;;;;;43.95;24.42;;;;;;;;;;5079815;28;20033;-81
2024/02/27 02:14:12;;;;;;;45.58;25.65;;;;;;;;;;5012543;28;20038;-81
2024/02/27 02:16:38;;;;;;;44.92;25.10;;;;;;;;;;5010736;28;20025;-75
2024/02/27 02:19:04;;;;;;;45.05;25.33;;;;;;;;;;5012635;28;20029;-75
2024/02/27 02:21:30;;;;;;;39.88;23.90;;;;;;;;;;5012232;28;20030;-76
2024/02/27 02:23:59;;;;;;;41.65;23.95;;;;;;;;;;5080475;28;20071;-76
2024/02/27 02:26:27;;;;;;;41.58;24.00;;;;;;;;;;5080005;28;20044;-76
2024/02/27 02:28:53;;;;;;;40.90;23.50;;;;;;;;;;5012028;28;20014;-81
2024/02/27 02:31:19;;;;;;;40.35;22.02;;;;;;;;;;5080059;28;20067;-76
2024/02/27 02:33:46;;;;;;;43.42;23.30;;;;;;;;;;5079733;28;20430;-81
2024/02/27 02:36:12;;;;;;;39.90;22.40;;;;;;;;;;5079936;28;20108;-75
2024/02/27 02:38:38;;;;;;;40.92;22.85;;;;;;;;;;5010845;28;20018;-75
2024/02/27 02:41:04;;;;;;;43.92;24.95;;;;;;;;;;4999077;28;20077;-81
2024/02/27 02:43:30;;;;;;;52.05;27.88;;;;;;;;;;5011921;28;20078;-80
2024/02/27 02:45:56;;;;;;;49.33;24.88;;;;;;;;;;5074076;28;20117;-75
2024/02/27 02:48:22;;;;;;;38.78;21.65;;;;;;;;;;5005636;28;20026;-80
2024/02/27 02:50:48;;;;;;;39.42;22.10;;;;;;;;;;5079825;28;20029;-81
2024/02/27 02:53:14;;;;;;;36.45;21.40;;;;;;;;;;5011743;28;20034;-81
2024/02/27 02:55:42;;;;;;;35.08;21.48;;;;;;;;;;5011805;28;20154;-75
2024/02/27 02:58:08;;;;;;;37.50;22.55;;;;;;;;;;5011872;28;20033;-81
2024/02/27 03:00:34;;;;;;;37.72;22.83;;;;;;;;;;5011889;28;20083;-76
2024/02/27 03:03:01;;;;;;;39.47;21.95;;;;;;;;;;5011542;28;20423;-82
2024/02/27 03:05:27;;;;;;;37.35;21.20;;;;;;;;;;5079354;28;20471;-82
2024/02/27 03:07:53;;;;;;;34.63;21.30;;;;;;;;;;5011373;28;20105;-77
2024/02/27 03:10:19;;;;;;;44.08;22.15;;;;;;;;;;5011745;28;20018;-76
2024/02/27 03:12:46;;;;;;;36.88;20.90;;;;;;;;;;5010730;28;20033;-81
2024/02/27 03:15:12;;;;;;;40.10;21.40;;;;;;;;;;4992131;28;20120;-80
2024/02/27 03:17:38;;;;;;;35.92;19.98;;;;;;;;;;5010017;28;20037;-81
2024/02/27 03:20:09;;;;;;;38.20;22.70;;;;;;;;;;5079370;28;20029;-76
2024/02/27 03:22:35;;;;;;;41.72;23.70;;;;;;;;;;5011436;28;20018;-81
2024/02/27 03:25:05;;;;;;;45.13;24.85;;;;;;;;;;5079099;28;20026;-82
2024/02/27 03:27:31;;;;;;;50.08;26.33;;;;;;;;;;5078682;28;20022;-81
2024/02/27 03:29:57;;;;;;;44.13;25.25;;;;;;;;;;5010934;28;20029;-81
2024/02/27 03:32:24;;;;;;;46.85;25.23;;;;;;;;;;5011028;28;20048;-81
2024/02/27 03:34:50;;;;;;;43.90;23.30;;;;;;;;;;5078873;28;20034;-76
2024/02/27 03:37:16;;;;;;;39.85;22.15;;;;;;;;;;5078651;28;20083;-81
2024/02/27 03:39:42;;;;;;;40.00;22.98;;;;;;;;;;5010990;28;20046;-82
2024/02/27 03:42:08;;;;;;;39.40;23.17;;;;;;;;;;5078540;28;20489;-82
2024/02/27 03:44:35;;;;;;;37.22;23.13;;;;;;;;;;5011246;28;20532;-82
2024/02/27 03:47:01;;;;;;;42.05;23.88;;;;;;;;;;5066717;28;20039;-77
2024/02/27 03:49:27;;;;;;;38.75;24.08;;;;;;;;;;5010839;28;20075;-76
2024/02/27 03:51:53;;;;;;;43.53;24.33;;;;;;;;;;5078118;28;20040;-76
2024/02/27 03:54:20;;;;;;;37.38;21.63;;;;;;;;;;5078333;28;20041;-77
2024/02/27 03:56:46;;;;;;;39.00;21.85;;;;;;;;;;5078270;28;20113;-77
2024/02/27 03:59:12;;;;;;;40.45;22.85;;;;;;;;;;4998911;28;20468;-77
2024/02/27 04:01:38;;;;;;;40.50;23.13;;;;;;;;;;5009501;28;20030;-77
2024/02/27 04:04:05;;;;;;;36.33;22.33;;;;;;;;;;5076558;28;20519;-76
2024/02/27 04:06:31;;;;;;;38.53;22.17;;;;;;;;;;5009623;28;20018;-77
2024/02/27 04:08:57;;;;;;;36.03;22.30;;;;;;;;;;5009141;28;20025;-82
2024/02/27 04:11:23;;;;;;;41.08;23.45;;;;;;;;;;5059584;28;20083;-77
2024/02/27 04:13:49;;;;;;;45.55;23.55;;;;;;;;;;5009578;28;20025;-83
2024/02/27 04:16:15;;;;;;;38.22;22.17;;;;;;;;;;5073910;28;20026;-78
2024/02/27 04:18:41;;;;;;;36.88;22.25;;;;;;;;;;5069987;28;20026;-76
2024/02/27 04:21:07;;;;;;;40.67;21.40;;;;;;;;;;5010430;28;20151;-81
2024/02/27 04:23:34;;;;;;;33.13;20.33;;;;;;;;;;5010620;28;20463;-82
2024/02/27 04:26:01;;;;;;;32.50;20.25;;;;;;;;;;5010572;28;20037;-76
2024/02/27 04:28:27;;;;;;;38.15;20.30;;;;;;;;;;4997048;28;20447;-76
2024/02/27 04:30:53;;;;;;;32.80;19.88;;;;;;;;;;5002730;28;20476;-76
2024/02/27 04:33:19;;;;;;;34.50;20.42;;;;;;;;;;5009104;28;20029;-76
2024/02/27 04:35:46;;;;;;;37.72;20.23;;;;;;;;;;5077659;28;20558;-83
2024/02/27 04:38:12;;;;;;;35.30;22.05;;;;;;;;;;5077625;28;20026;-77
2024/02/27 04:40:38;;;;;;;34.65;20.17;;;;;;;;;;5009811;28;20045;-76
2024/02/27 04:43:04;;;;;;;35.22;20.08;;;;;;;;;;5000175;28;20067;-77
2024/02/27 04:45:30;;;;;;;38.53;22.05;;;;;;;;;;5003525;28;20098;-83
2024/02/27 04:47:57;;;;;;;32.63;19.27;;;;;;;;;;5007330;28;20429;-77
2024/02/27 04:50:23;;;;;;;32.72;19.88;;;;;;;;;;5003667;28;20380;-77
2024/02/27 04:52:49;;;;;;;29.70;19.42;;;;;;;;;;5005189;28;20022;-77
2024/02/27 04:55:15;;;;;;;32.15;19.05;;;;;;;;;;5077424;28;20041;-76
2024/02/27 04:57:41;;;;;;;30.42;19.15;;;;;;;;;;5077494;28;20022;-83
2024/02/27 05:00:09;;;;;;;34.45;21.15;;;;;;;;;;5074995;28;20022;-76
2024/02/27 05:02:35;;;;;;;33.53;21.00;;;;;;;;;;5006196;28;20018;-82
2024/02/27 05:05:01;;;;;;;33.15;19.35;;;;;;;;;;5082975;28;20152;-81
2024/02/27 05:07:27;;;;;;;30.35;18.65;;;;;;;;;;5077617;28;20034;-82
2024/02/27 05:09:53;;;;;;;34.78;20.42;;;;;;;;;;5016208;28;20029;-77
2024/02/27 05:12:19;;;;;;;32.15;19.42;;;;;;;;;;5084164;28;20117;-82
2024/02/27 05:14:46;;;;;;;31.42;19.38;;;;;;;;;;5012637;28;20083;-82
2024/02/27 05:17:12;;;;;;;37.13;20.48;;;;;;;;;;5016083;28;20031;-81
2024/02/27 05:19:39;;;;;;;34.45;20.13;;;;;;;;;;5015094;28;20041;-82
2024/02/27 05:22:05;;;;;;;34.95;19.92;;;;;;;;;;5002857;28;20054;-81
2024/02/27 05:24:31;;;;;;;32.97;20.52;;;;;;;;;;5084186;28;20062;-82
2024/02/27 05:26:57;;;;;;;32.85;19.63;;;;;;;;;;5015926;28;20026;-81
2024/02/27 05:29:23;;;;;;;33.80;19.50;;;;;;;;;;5016408;28;20029;-76
2024/02/27 05:31:49;;;;;;;32.72;20.55;;;;;;;;;;5083868;28;20018;-82
2024/02/27 05:34:15;;;;;;;34.97;20.75;;;;;;;;;;5083649;28;20038;-76
2024/02/27 05:36:41;;;;;;;34.63;21.20;;;;;;;;;;5083929;28;20022;-76
2024/02/27 05:39:08;;;;;;;36.28;22.60;;;;;;;;;;5016095;28;20029;-81
2024/02/27 05:41:34;;;;;;;41.72;24.02;;;;;;;;;;5097350;28;20040;-75
2024/02/27 05:44:00;;;;;;;34.90;22.00;;;;;;;;;;5092250;28;20033;-81
2024/02/27 05:46:26;;;;;;;36.83;21.85;;;;;;;;;;5098925;28;20074;-82
2024/02/27 05:48:52;;;;;;;36.08;21.95;;;;;;;;;;5096458;28;20032;-82
2024/02/27 05:51:20;;;;;;;34.25;20.85;;;;;;;;;;5083381;28;20103;-82
2024/02/27 05:53:47;;;;;;;35.90;20.42;;;;;;;;;;5093498;28;20115;-76
2024/02/27 05:56:13;;;;;;;33.88;20.58;;;;;;;;;;5098632;28;20016;-76
2024/02/27 05:58:39;;;;;;;35.88;22.42;;;;;;;;;;5098840;28;20073;-77
2024/02/27 06:01:05;;;;;;;33.25;20.25;;;;;;;;;;5095728;28;20051;-82
2024/02/27 06:03:31;;;;;;;35.85;20.02;;;;;;;;;;5091455;28;20035;-77
2024/02/27 06:05:58;;;;;;;33.05;20.63;;;;;;;;;;5097030;28;20478;-77
2024/02/27 06:08:25;;;;;;;35.65;19.00;;;;;;;;;;5087884;28;20070;-77
2024/02/27 06:10:51;;;;;;;31.35;20.20;;;;;;;;;;5096034;28;20084;-77
2024/02/27 06:13:17;;;;;;;32.25;19.30;;;;;;;;;;5098309;28;20016;-77
2024/02/27 06:15:44;;;;;;;29.58;19.40;;;;;;;;;;5093129;28;20493;-84
2024/02/27 06:18:13;;;;;;;31.77;20.30;;;;;;;;;;5094068;28;20932;-83
2024/02/27 06:23:29;;;;;;;33.50;19.85;;;;;;;;;;5083730;28;20558;-77
2024/02/27 06:25:55;;;;;;;30.05;18.35;;;;;;;;;;5093610;28;20107;-78
2024/02/27 06:28:22;;;;;;;32.50;20.75;;;;;;;;;;5091866;28;20494;-77
2024/02/27 06:30:48;;;;;;;30.73;19.35;;;;;;;;;;5083263;28;20027;-78
2024/02/27 06:33:14;;;;;;;29.42;18.80;;;;;;;;;;5086466;28;20039;-77
2024/02/27 06:35:40;;;;;;;33.38;18.83;;;;;;;;;;5086818;28;20036;-77
2024/02/27 06:38:06;;;;;;;30.88;19.08;;;;;;;;;;5083853;28;20390;-77
2024/02/27 06:40:32;;;;;;;31.63;19.50;;;;;;;;;;5046351;28;20120;-78
2024/02/27 06:42:59;;;;;;;31.80;19.45;;;;;;;;;;5000395;28;20041;-78
2024/02/27 06:45:25;;;;;;;32.80;18.67;;;;;;;;;;4998324;28;20022;-83
2024/02/27 06:47:51;;;;;;;26.25;17.15;;;;;;;;;;5040167;28;20034;-77
2024/02/27 06:50:17;;;;;;;30.00;17.38;;;;;;;;;;4993590;28;20109;-80
2024/02/27 06:52:43;;;;;;;28.60;17.88;;;;;;;;;;5068180;28;20034;-82
2024/02/27 06:55:09;;;;;;;29.80;17.70;;;;;;;;;;5007802;28;20038;-82
2024/02/27 06:57:35;;;;;;;28.48;17.85;;;;;;;;;;5076099;28;20043;-82
2024/02/27 07:00:04;;;;;;;30.63;18.70;;;;;;;;;;5009049;28;20040;-82
2024/02/27 07:02:31;;;;;;;30.38;17.73;;;;;;;;;;5073244;28;20026;-81
2024/02/27 07:04:57;;;;;;;30.60;19.05;;;;;;;;;;5074920;28;20462;-82
2024/02/27 07:07:23;;;;;;;27.15;19.65;;;;;;;;;;5077496;28;20022;-77
2024/02/27 07:09:49;;;;;;;30.42;19.92;;;;;;;;;;5007864;28;20018;-81
2024/02/27 07:12:15;;;;;;;29.88;19.02;;;;;;;;;;5006362;28;20493;-77
2024/02/27 07:14:42;;;;;;;31.15;19.92;;;;;;;;;;5076400;28;20482;-82
2024/02/27 07:17:08;;;;;;;27.23;18.48;;;;;;;;;;5008283;28;20093;-77
2024/02/27 07:19:35;;;;;;;31.05;20.05;;;;;;;;;;5004713;28;20097;-81
2024/02/27 07:22:01;;;;;;;34.00;19.27;;;;;;;;;;5003027;28;20122;-77
2024/02/27 07:24:28;;;;;;;35.20;20.98;;;;;;;;;;5009400;28;20097;-81
2024/02/27 07:26:54;;;;;;;33.15;21.17;;;;;;;;;;5001453;28;20486;-81
2024/02/27 07:29:20;;;;;;;28.65;18.98;;;;;;;;;;5031419;28;20071;-78
2024/02/27 07:31:47;;;;;;;31.70;20.55;;;;;;;;;;4997746;28;20690;-77
2024/02/27 07:34:16;;;;;;;34.40;19.80;;;;;;;;;;5008916;28;20030;-78
2024/02/27 07:36:43;;;;;;;33.13;19.88;;;;;;;;;;5005467;28;20026;-81
2024/02/27 07:39:10;;;;;;;32.88;19.73;;;;;;;;;;5078844;28;20099;-81
2024/02/27 07:41:36;;;;;;;31.65;20.27;;;;;;;;;;5010975;28;20049;-81
2024/02/27 07:44:03;;;;;;;34.03;20.13;;;;;;;;;;5010784;28;20026;-81
2024/02/27 07:46:30;;;;;;;30.45;19.58;;;;;;;;;;5078901;28;20384;-82
2024/02/27 07:48:56;;;;;;;36.58;22.77;;;;;;;;;;5078623;28;20026;-81
2024/02/27 07:51:29;;;;;;;41.10;24.30;;;;;;;;;;5078568;28;20058;-77
2024/02/27 07:53:55;;;;;;;39.08;24.25;;;;;;;;;;5078167;28;20030;-81
2024/02/27 07:56:21;;;;;;;38.15;21.70;;;;;;;;;;5078562;28;20034;-81
2024/02/27 07:58:47;;;;;;;33.28;20.25;;;;;;;;;;5078438;28;20033;-81
2024/02/27 08:01:13;;;;;;;31.73;19.88;;;;;;;;;;5010996;28;20105;-77
2024/02/27 08:03:39;;;;;;;30.02;19.52;;;;;;;;;;5078184;28;20026;-81
2024/02/27 08:06:08;;;;;;;32.20;22.17;;;;;;;;;;5003243;28;20019;-81
2024/02/27 08:08:35;;;;;;;41.67;23.60;;;;;;;;;;4995585;28;20181;-78
2024/02/27 08:11:06;;;;;;;40.33;23.90;;;;;;;;;;5005714;28;20041;-81
2024/02/27 08:13:32;;;;;;;43.85;26.05;;;;;;;;;;5010634;28;20026;-78
2024/02/27 08:15:58;;;;;;;42.78;25.00;;;;;;;;;;5005299;28;20125;-78
2024/02/27 08:18:24;;;;;;;40.83;26.73;;;;;;;;;;5078286;28;20037;-81
2024/02/27 08:20:50;;;;;;;46.63;27.65;;;;;;;;;;4998688;28;20034;-81
2024/02/27 08:23:16;;;;;;;37.78;24.25;;;;;;;;;;5078208;28;20064;-81
2024/02/27 08:25:43;;;;;;;42.45;24.25;;;;;;;;;;4999321;28;20026;-81
2024/02/27 08:28:09;;;;;;;47.95;29.25;;;;;;;;;;5078194;28;20022;-77
2024/02/27 08:30:35;;;;;;;47.25;26.65;;;;;;;;;;5010168;28;20112;-77
2024/02/27 08:33:03;;;;;;;41.28;24.55;;;;;;;;;;5010351;28;20052;-81
2024/02/27 08:35:29;;;;;;;39.45;23.88;;;;;;;;;;5009501;28;20030;-81
2024/02/27 08:37:56;;;;;;;42.95;25.48;;;;;;;;;;5008267;28;20105;-75
2024/02/27 08:40:22;;;;;;;43.75;25.73;;;;;;;;;;5009786;28;20064;-79
2024/02/27 08:42:48;;;;;;;38.67;23.67;;;;;;;;;;5010159;28;20090;-75
2024/02/27 08:45:14;;;;;;;32.90;20.58;;;;;;;;;;5004426;28;20467;-78
2024/02/27 08:47:40;;;;;;;30.80;19.35;;;;;;;;;;5005340;28;20030;-79
2024/02/27 08:50:07;;;;;;;31.05;17.70;;;;;;;;;;4994940;28;20113;-79
2024/02/27 08:52:33;;;;;;;24.33;16.58;;;;;;;;;;5010189;28;20033;-75
2024/02/27 08:54:59;;;;;;;24.25;16.90;;;;;;;;;;5005923;28;20419;-79
2024/02/27 08:57:25;;;;;;;28.00;19.38;;;;;;;;;;5001242;28;20026;-79
2024/02/27 08:59:51;;;;;;;26.55;18.50;;;;;;;;;;4999730;28;20025;-79
2024/02/27 09:02:18;;;;;;;22.77;15.43;;;;;;;;;;5076302;28;20029;-75
2024/02/27 09:04:44;;;;;;;23.95;15.57;;;;;;;;;;5007591;28;20017;-75
2024/02/27 09:07:11;;;;;;;21.48;14.68;;;;;;;;;;5004369;28;20071;-79
2024/02/27 09:09:40;;;;;;;19.25;13.43;;;;;;;;;;5010009;28;20101;-80
2024/02/27 09:12:09;;;;;;;22.90;15.45;;;;;;;;;;5009909;28;20068;-75
2024/02/27 09:14:35;;;;;;;19.88;14.15;;;;;;;;;;5009786;28;20476;-79
2024/02/27 09:17:01;;;;;;;19.45;14.20;;;;;;;;;;5077421;28;20026;-75
2024/02/27 09:19:29;;;;;;;20.00;13.48;;;;;;;;;;5077433;28;20045;-79
2024/02/27 09:21:55;;;;;;;17.00;12.32;;;;;;;;;;5009741;28;20018;-75
2024/02/27 09:24:21;;;;;;;18.95;13.07;;;;;;;;;;5077402;28;20041;-79
2024/02/27 09:26:47;;;;;;;19.13;12.10;;;;;;;;;;5069934;28;20037;-79
2024/02/27 09:29:13;;;;;;;16.67;12.75;;;;;;;;;;5077248;28;20041;-79
2024/02/27 09:31:42;;;;;;;19.10;13.48;;;;;;;;;;5008878;28;20060;-79
2024/02/27 09:34:09;;;;;;;17.30;12.15;;;;;;;;;;5009358;28;20430;-79
2024/02/27 09:36:35;;;;;;;14.27;11.02;;;;;;;;;;5077253;28;20025;-74
2024/02/27 09:39:02;;;;;;;16.83;11.82;;;;;;;;;;4999403;28;20053;-76
2024/02/27 09:41:34;;;;;;;18.85;11.57;;;;;;;;;;5009596;28;20099;-79
2024/02/27 09:44:01;;;;;;;16.63;11.23;;;;;;;;;;5009410;28;20033;-75
2024/02/27 09:46:27;;;;;;;16.48;11.13;;;;;;;;;;5077200;28;20075;-79
2024/02/27 09:48:55;;;;;;;17.63;11.15;;;;;;;;;;5003006;28;20349;-75
2024/02/27 09:51:23;;;;;;;14.93;10.57;;;;;;;;;;5079356;28;20065;-80
2024/02/27 09:53:49;;;;;;;13.40;9.85;;;;;;;;;;4996069;28;20022;-79
2024/02/27 09:56:16;;;;;;;13.73;9.63;;;;;;;;;;5065817;28;20026;-79
2024/02/27 09:58:43;;;;;;;13.35;9.77;;;;;;;;;;5084570;28;20484;-75
2024/02/27 10:01:14;;;;;;;12.98;9.50;;;;;;;;;;5009184;28;20033;-79
2024/02/27 10:03:43;;;;;;;11.80;9.95;;;;;;;;;;5080932;28;20026;-79
2024/02/27 10:06:12;;;;;;;9.88;7.55;;;;;;;;;;5010525;28;20022;-75
2024/02/27 10:08:40;;;;;;;11.90;7.95;;;;;;;;;;5001281;28;20018;-76
2024/02/27 10:11:07;;;;;;;11.10;7.45;;;;;;;;;;5012420;28;20018;-76
2024/02/27 10:13:33;;;;;;;10.73;7.45;;;;;;;;;;5080282;28;20028;-80
2024/02/27 10:16:00;;;;;;;8.40;6.93;;;;;;;;;;5080102;28;20200;-79
2024/02/27 10:18:26;;;;;;;9.05;6.82;;;;;;;;;;5012343;28;20104;-76
2024/02/27 10:20:52;;;;;;;9.10;6.82;;;;;;;;;;5080377;28;20394;-80
2024/02/27 10:23:18;;;;;;;9.85;7.50;;;;;;;;;;5012052;28;20075;-80
2024/02/27 10:25:45;;;;;;;10.77;8.35;;;;;;;;;;5005266;28;20038;-81
2024/02/27 10:28:11;;;;;;;9.57;7.93;;;;;;;;;;5080241;28;20522;-80
2024/02/27 10:30:37;;;;;;;11.75;8.95;;;;;;;;;;5080145;28;20022;-76
2024/02/27 10:33:07;;;;;;;7.97;6.07;;;;;;;;;;5012157;28;20514;-80
2024/02/27 10:35:33;;;;;;;9.43;7.07;;;;;;;;;;5011776;28;20034;-80
2024/02/27 10:37:59;;;;;;;11.85;8.18;;;;;;;;;;5084531;28;20471;-76
2024/02/27 10:40:30;;;;;;;9.95;6.72;;;;;;;;;;5011773;28;20053;-76
2024/02/27 10:42:56;;;;;;;6.20;5.43;;;;;;;;;;5012198;28;20014;-76
2024/02/27 10:45:22;;;;;;;10.52;6.60;;;;;;;;;;5010525;28;20139;-76
2024/02/27 10:47:49;;;;;;;16.83;7.90;;;;;;;;;;5003800;28;20055;-77
2024/02/27 10:50:15;;;;;;;11.13;8.35;;;;;;;;;;5011925;28;20379;-80
2024/02/27 10:52:42;;;;;;;10.25;9.13;;;;;;;;;;5068415;28;20034;-76
2024/02/27 10:55:09;;;;;;;17.60;9.73;;;;;;;;;;5004996;28;20045;-80
2024/02/27 10:57:36;;;;;;;6.57;5.95;;;;;;;;;;4998869;28;20130;-81
2024/02/27 11:00:04;;;;;;;12.80;7.13;;;;;;;;;;5054533;28;20381;-80
2024/02/27 11:02:32;;;;;;;18.02;8.52;;;;;;;;;;4999349;28;20391;-81
2024/02/27 11:05:00;;;;;;;11.60;7.20;;;;;;;;;;5089168;28;20022;-80
2024/02/27 11:07:26;;;;;;;12.48;7.07;;;;;;;;;;5002384;28;20042;-81
2024/02/27 11:09:52;;;;;;;11.98;6.45;;;;;;;;;;5001670;28;20022;-80
2024/02/27 11:12:20;;;;;;;11.23;5.68;;;;;;;;;;4998231;28;20026;-81
2024/02/27 11:14:49;;;;;;;9.70;4.90;;;;;;;;;;5000786;28;20113;-81
2024/02/27 11:17:22;;;;;;;10.00;6.60;;;;;;;;;;5071886;28;20095;-81
2024/02/27 11:19:52;;;;;;;10.02;5.95;;;;;;;;;;5074022;28;20548;-81
2024/02/27 11:22:19;;;;;;;14.00;8.88;;;;;;;;;;5078996;28;20075;-81
2024/02/27 11:24:48;;;;;;;10.18;7.45;;;;;;;;;;5068164;28;20061;-76
2024/02/27 11:27:15;;;;;;;9.45;5.82;;;;;;;;;;4995129;28;20022;-76
2024/02/27 11:29:42;;;;;;;10.00;6.85;;;;;;;;;;5046390;28;20069;-76
2024/02/27 11:32:09;;;;;;;7.78;6.47;;;;;;;;;;4997116;28;20018;-76
2024/02/27 11:34:46;;;;;;;9.35;5.50;;;;;;;;;;5068191;28;20032;-77
2024/02/27 11:37:22;;;;;;;6.88;5.13;;;;;;;;;;5067735;28;20537;-77
2024/02/27 11:39:49;;;;;;;7.45;5.50;;;;;;;;;;5072042;28;20065;-74
2024/02/27 11:42:21;;;;;;;7.90;4.88;;;;;;;;;;5024075;28;20028;-79
2024/02/27 11:45:04;;;;;;;7.75;5.57;;;;;;;;;;5069490;28;20479;-79
2024/02/27 11:47:30;;;;;;;;;;;;;;;;;;5005123;28;20083;-79
2024/02/27 11:49:56;;;;;;;9.27;5.20;;;;;;;;;;5072082;28;20537;-81
2024/02/27 11:52:22;;;;;;;23.55;15.85;;;;;;;;;;5077210;28;20022;-81
2024/02/27 11:54:48;;;;;;;15.35;11.32;;;;;;;;;;5005771;28;20030;-81
2024/02/27 11:57:14;;;;;;;9.25;6.50;;;;;;;;;;5003278;28;20476;-81
2024/02/27 11:59:40;;;;;;;9.70;5.38;;;;;;;;;;5078421;28;20026;-81
2024/02/27 12:02:07;;;;;;;12.43;6.15;;;;;;;;;;5009004;28;20483;-81
2024/02/27 12:04:33;;;;;;;32.60;17.85;;;;;;;;;;5082952;28;20046;-80
2024/02/27 12:06:59;;;;;;;12.52;6.35;;;;;;;;;;5077796;28;20030;-81
2024/02/27 12:09:25;;;;;;;17.20;7.90;;;;;;;;;;5077880;28;20030;-81
2024/02/27 12:11:53;;;;;;;34.30;9.85;;;;;;;;;;5010282;28;20499;-81
2024/02/27 12:14:20;;;;;;;15.32;10.07;;;;;;;;;;5069979;28;20038;-80
2024/02/27 12:16:46;;;;;;;9.63;6.75;;;;;;;;;;5072683;28;20026;-81
2024/02/27 12:19:12;;;;;;;13.80;10.15;;;;;;;;;;5077876;28;20021;-81
2024/02/27 12:21:38;;;;;;;19.60;10.25;;;;;;;;;;5002182;28;20430;-80
2024/02/27 12:24:11;;;;;;;45.80;23.48;;;;;;;;;;5000958;28;20073;-81
2024/02/27 12:26:38;;;;;;;12.82;8.02;;;;;;;;;;4995230;28;20033;-80
2024/02/27 12:29:04;;;;;;;8.07;6.22;;;;;;;;;;5066922;28;20082;-80
2024/02/27 12:31:33;;;;;;;10.95;6.72;;;;;;;;;;4999748;28;20041;-81
2024/02/27 12:34:00;;;;;;;49.22;24.67;;;;;;;;;;4996969;28;20499;-80
2024/02/27 12:36:26;;;;;;;11.90;7.53;;;;;;;;;;4993980;28;20047;-81
2024/02/27 12:38:52;;;;;;;8.20;6.25;;;;;;;;;;4991244;28;20121;-80
2024/02/27 12:41:19;;;;;;;8.80;6.22;;;;;;;;;;4998752;28;20136;-81
2024/02/27 12:43:47;;;;;;;10.88;7.03;;;;;;;;;;5061034;28;20145;-80
2024/02/27 12:46:13;;;;;;;10.90;6.82;;;;;;;;;;4995894;28;20113;-81
2024/02/27 12:48:39;;;;;;;9.93;6.43;;;;;;;;;;5076249;28;20026;-81
2024/02/27 12:51:06;;;;;;;9.98;7.28;;;;;;;;;;5076201;28;20079;-80
2024/02/27 12:53:33;;;;;;;12.52;5.63;;;;;;;;;;5068830;28;20041;-80
2024/02/27 12:55:59;;;;;;;8.57;6.93;;;;;;;;;;5075982;28;20537;-79
2024/02/27 12:58:27;;;;;;;11.95;7.85;;;;;;;;;;5074286;28;20491;-81
2024/02/27 13:00:54;;;;;;;9.82;7.85;;;;;;;;;;4992500;28;20030;-80
2024/02/27 13:03:20;;;;;;;40.47;19.55;;;;;;;;;;5000557;28;20497;-80
2024/02/27 13:05:46;;;;;;;19.48;10.65;;;;;;;;;;5075920;28;20037;-80
2024/02/27 13:08:13;;;;;;;24.35;14.38;;;;;;;;;;4989940;28;20075;-76
2024/02/27 13:10:39;;;;;;;10.35;6.72;;;;;;;;;;4999706;28;20059;-76
2024/02/27 13:13:08;;;;;;;9.10;6.18;;;;;;;;;;4997171;28;20479;-76
2024/02/27 13:15:35;;;;;;;9.60;7.72;;;;;;;;;;4998452;28;20557;-76
2024/02/27 13:18:01;;;;;;;18.15;9.80;;;;;;;;;;5071554;28;20502;-76
2024/02/27 13:20:30;;;;;;;10.07;7.53;;;;;;;;;;5002456;28;20033;-75
2024/02/27 13:22:56;;;;;;;21.77;13.05;;;;;;;;;;5072647;28;20025;-76
2024/02/27 13:25:22;;;;;;;25.17;16.40;;;;;;;;;;5010507;28;20053;-76
2024/02/27 13:27:48;;;;;;;18.88;11.82;;;;;;;;;;5011128;28;20014;-76
2024/02/27 13:30:14;;;;;;;17.92;10.02;;;;;;;;;;5076326;28;20030;-76
2024/02/27 13:32:40;;;;;;;19.90;11.40;;;;;;;;;;5074959;28;20026;-76
2024/02/27 13:35:07;;;;;;;12.60;7.72;;;;;;;;;;5078907;28;20034;-76
2024/02/27 13:37:33;;;;;;;13.48;7.32;;;;;;;;;;5007824;28;20101;-76
2024/02/27 13:39:59;;;;;;;16.05;7.93;;;;;;;;;;5084241;28;20102;-76
2024/02/27 13:42:25;;;;;;;14.43;9.73;;;;;;;;;;5075778;28;20039;-76
2024/02/27 13:44:51;;;;;;;15.73;9.18;;;;;;;;;;5073926;28;20414;-76
2024/02/27 13:47:19;;;;;;;13.07;9.10;;;;;;;;;;5006334;28;20030;-76
2024/02/27 13:49:45;;;;;;;14.13;8.93;;;;;;;;;;5004605;28;20099;-76
2024/02/27 13:52:12;;;;;;;12.27;8.50;;;;;;;;;;5011825;28;20507;-76
2024/02/27 13:54:38;;;;;;;13.13;8.07;;;;;;;;;;5074022;28;20087;-76
2024/02/27 13:57:04;;;;;;;10.95;6.85;;;;;;;;;;4995721;28;20044;-75
2024/02/27 13:59:30;;;;;;;11.07;7.63;;;;;;;;;;4999383;28;20046;-77
2024/02/27 14:01:57;;;;;;;10.63;8.00;;;;;;;;;;5003486;28;20027;-76
2024/02/27 14:04:23;;;;;;;11.63;8.23;;;;;;;;;;5074824;28;20101;-76
2024/02/27 14:06:49;;;;;;;11.88;7.88;;;;;;;;;;5075704;28;20037;-76
2024/02/27 14:09:16;;;;;;;14.13;8.05;;;;;;;;;;5010985;28;20077;-75
2024/02/27 14:11:43;;;;;;;8.88;7.40;;;;;;;;;;5018528;28;20030;-76
2024/02/27 14:14:09;;;;;;;14.32;8.60;;;;;;;;;;5025500;28;20446;-75
2024/02/27 14:16:35;;;;;;;16.42;9.18;;;;;;;;;;5069675;28;20089;-76
2024/02/27 14:19:04;;;;;;;19.30;10.63;;;;;;;;;;4996174;28;20044;-76
2024/02/27 14:21:31;;;;;;;18.77;11.45;;;;;;;;;;5085334;28;20438;-76